Flight Track Log - Related Links

Times and Time Zones

All times are in EDT time to prevent confusion due to time zone crossing. See the EJM848 flight status page for this flight to view local times or setup timezone preferences in your user account.

Time Position Orientation Groundspeed Altitude Reporting Facility
EDT Latitude Longitude Course Direction KTS MPH feet Rate Location/Type
Thu 09:37:03 PM 40.8533 -74.0594 111° Southeast 145 167 200  Level FlightAware ADS-B
Thu 09:37:17 PM 40.8632 -74.0577 North 165 190 1,000 3,158 Climbing FlightAware ADS-B
Thu 09:37:22 PM 40.8670 -74.0559 20° North 175 201 1,200 2,800 Climbing FlightAware ADS-B
Thu 09:37:32 PM 40.8750 -74.0506 27° Northeast 183 211 1,700 1,826 Climbing FlightAware ADS-B
Thu 09:37:45 PM 40.8842 -74.0441 28° Northeast 184 212 1,900 1,500 Climbing FlightAware ADS-B
Thu 09:37:48 PM 40.8833 -74.0500 306° West 180 207 2,100  Climbing New York TRACON
Thu 09:37:51 PM 40.8888 -74.0411 26° Northeast 184 212 1,900 -2,000 Descending FlightAware ADS-B
Thu 09:37:54 PM 40.8915 -74.0395 24° Northeast 185 213 1,900  Level FlightAware ADS-B
Thu 09:37:58 PM 40.8948 -74.0381 18° North 188 216 1,900  Level FlightAware ADS-B
Thu 09:38:01 PM 40.8974 -74.0375 10° North 193 222 1,900  Level FlightAware ADS-B
Thu 09:38:05 PM 40.9004 -74.0374 North 200 230 1,900 750 Level FlightAware ADS-B
Thu 09:38:09 PM 40.9048 -74.0380 354° North 208 239 2,000 1,500 Climbing FlightAware ADS-B
Thu 09:38:13 PM 40.9082 -74.0393 344° North 213 245 2,100 1,286 Climbing FlightAware ADS-B
Thu 09:38:23 PM 40.9169 -74.0462 329° Northwest 226 260 2,300 1,385 Climbing FlightAware ADS-B
Thu 09:38:26 PM 40.9192 -74.0494 314° West 237 273 2,400 2,000 Climbing FlightAware ADS-B
Thu 09:38:29 PM 40.9214 -74.0532 307° West 243 280 2,500 3,000 Climbing FlightAware ADS-B
Thu 09:38:32 PM 40.9230 -74.0570 299° West 250 288 2,700 2,250 Climbing FlightAware ADS-B
Thu 09:38:37 PM 40.9251 -74.0641 291° West 259 298 2,800 2,625 Climbing FlightAware ADS-B
Thu 09:38:48 PM 40.9333 -74.0833 333° Northwest 247 284 3,400 3,692 Climbing New York TRACON
Thu 09:38:50 PM 40.9263 -74.0853 274° West 275 316 3,600 5,333 Climbing FlightAware ADS-B
Thu 09:39:15 PM 40.9255 -74.1291 269° West 291 335 5,800 5,053 Climbing FlightAware ADS-B
Thu 09:39:28 PM 40.9287 -74.1513 281° West 296 341 6,800 4,909 Climbing FlightAware ADS-B
Thu 09:39:48 PM 40.9333 -74.1833 270° West 296 341 8,500 4,667 Climbing New York TRACON
Thu 09:39:55 PM 40.9450 -74.1958 296° West 296 341 8,900 3,000 Climbing FlightAware ADS-B
Thu 09:40:10 PM 40.9552 -74.2218 297° West 306 352 9,600 2,557 Climbing FlightAware ADS-B
Thu 09:40:56 PM 40.9874 -74.3058 297° West 344 396 11,500 3,506 Climbing FlightAware ADS-B
Thu 09:41:27 PM 41.0116 -74.3688 297° West 373 429 14,100 4,473 Climbing FlightAware ADS-B
Thu 09:41:51 PM 41.0283 -74.4128 299° West 364 419 15,600 3,571 Climbing New York Center
Thu 09:42:51 PM 41.0764 -74.5392 297° West 378 435 19,100 3,500 Climbing New York Center
Thu 09:43:00 PM 41.0656 -74.5614 306° West  Level FlightAware Approximate
Thu 09:43:51 PM 41.1283 -74.6714 298° West 388 447 22,600  Level New York Center
Thu 09:44:51 PM 41.1883 -74.8100 300° West 415 478 25,100 2,750 Climbing New York Center
Thu 09:45:51 PM 41.2497 -74.9600 299° West 438 504 28,100 2,750 Climbing New York Center
Thu 09:46:51 PM 41.3153 -75.1078 301° West 456 525 30,600 3,000 Climbing New York Center
Thu 09:47:51 PM 41.3783 -75.2611 299° West 462 532 34,100 3,250 Climbing New York Center
Thu 09:48:51 PM 41.4433 -75.4092 300° West 468 539 37,100 3,100 Climbing New York Center
Thu 09:49:51 PM 41.4922 -75.5456 296° West 468 539 40,300 2,400 Climbing New York Center
Thu 09:50:51 PM 41.5378 -75.6986 292° West 454 522 41,900 1,900 Climbing New York Center
Thu 09:51:51 PM 41.5817 -75.8486 291° West 444 511 44,100 1,950 Climbing New York Center
Thu 09:52:51 PM 41.6250 -75.9992 291° West 439 505 45,800 1,600 Climbing New York Center
Thu 09:53:51 PM 41.6664 -76.1467 291° West 434 499 47,300 1,250 Climbing New York Center
Thu 09:54:51 PM 41.7075 -76.2917 291° West 434 499 48,300 700 Climbing New York Center
Thu 09:55:51 PM 41.7486 -76.4397 290° West 429 494 48,700 400 Climbing New York Center
Thu 09:56:51 PM 41.7906 -76.6019 289° West 429 494 49,100 400 Climbing New York Center
Thu 09:57:51 PM 41.8292 -76.7500 289° West 423 487 49,500 450 Climbing New York Center
Thu 09:58:51 PM 41.8714 -76.8986 291° West 423 487 50,000 592 Climbing New York Center
Thu 10:00:13 PM 41.9306 -77.1081 291° West 429 494 50,900 420 Climbing Cleveland Center
Thu 10:01:14 PM 41.9711 -77.2578 290° West 426 490 51,000 49 Climbing Cleveland Center
Thu 10:02:16 PM 42.0119 -77.4094 290° West 430 495 51,000  Level Cleveland Center
Thu 10:03:17 PM 42.0514 -77.5617 289° West 430 495 51,000  Level Cleveland Center
Thu 10:04:19 PM 42.0922 -77.7125 290° West 427 491 51,000  Level Cleveland Center
Thu 10:05:21 PM 42.1328 -77.8683 289° West 435 501 51,000  Level Cleveland Center
Thu 10:06:23 PM 42.1728 -78.0233 289° West 437 503 51,000  Level Cleveland Center
Thu 10:07:24 PM 42.2131 -78.1742 290° West 429 494 51,000  Level Cleveland Center
Thu 10:08:26 PM 42.2514 -78.3281 289° West 431 496 51,000  Level Cleveland Center
Thu 10:09:28 PM 42.2972 -78.5089 289° West 425 489 51,000  Level Cleveland Center
Thu 10:10:29 PM 42.3367 -78.6628 289° West 431 496 51,000  Level Cleveland Center
Thu 10:11:31 PM 42.3747 -78.8172 288° West 432 497 51,000  Level Cleveland Center
Thu 10:12:33 PM 42.4150 -78.9717 290° West 448 516 51,000  Level Cleveland Center
Thu 10:13:34 PM 42.4567 -79.1375 289° West 430 495 51,000  Level Cleveland Center
Thu 10:14:36 PM 42.4906 -79.2786 288° West 430 495 51,000  Level Cleveland Center
Thu 10:15:38 PM 42.4950 -79.4417 272° West 434 499 51,000  Level Cleveland Center
Thu 10:16:40 PM 42.4989 -79.6036 272° West 433 498 51,000  Level Cleveland Center
Thu 10:17:41 PM 42.5028 -79.7958 272° West 428 493 51,000  Level Cleveland Center
Thu 10:18:43 PM 42.5053 -79.9561 271° West 427 491 51,000  Level Cleveland Center
Thu 10:19:45 PM 42.5072 -80.1144 271° West 429 494 51,000  Level Cleveland Center
Thu 10:20:46 PM 42.5094 -80.2750 271° West 426 490 51,000  Level Cleveland Center
Thu 10:21:48 PM 42.5117 -80.4375 271° West 429 494 51,000  Level Cleveland Center
Thu 10:22:50 PM 42.5136 -80.6000 271° West 428 493 51,000  Level Cleveland Center
Thu 10:23:51 PM 42.5175 -80.7681 272° West 438 504 51,000  Level Cleveland Center
Thu 10:24:53 PM 42.5214 -80.9611 272° West 438 504 51,000  Level Cleveland Center
Thu 10:25:55 PM 42.5222 -81.1247 270° West 433 498 51,000  Level Cleveland Center
Thu 10:26:56 PM 42.5244 -81.2906 271° West 437 503 51,000  Level Cleveland Center
Thu 10:27:58 PM 42.5250 -81.4561 270° West 437 503 51,000  Level Cleveland Center
Thu 10:28:59 PM 42.5256 -81.6233 270° West 440 506 51,000  Level Cleveland Center
Thu 10:30:01 PM 42.5272 -81.7978 271° West 438 504 51,000  Level Cleveland Center
Thu 10:31:03 PM 42.5264 -81.9592 270° West 431 496 51,000  Level Cleveland Center
Thu 10:32:04 PM 42.5278 -82.1208 271° West 431 496 51,000  Level Cleveland Center
Thu 10:33:06 PM 42.5269 -82.2853 270° West 435 501 51,000  Level Cleveland Center
Thu 10:34:07 PM 42.5275 -82.4486 270° West 436 502 51,000  Level Cleveland Center
Thu 10:35:09 PM 42.5281 -82.6097 270° West 432 497 51,000  Level Cleveland Center
Thu 10:36:10 PM 42.5267 -82.8039 270° West 432 497 51,000  Level Cleveland Center
Thu 10:37:12 PM 42.5264 -82.9669 270° West 434 499 51,000  Level Cleveland Center
Thu 10:38:13 PM 42.5253 -83.1286 270° West 434 499 51,000  Level Cleveland Center
Thu 10:39:15 PM 42.5242 -83.2875 270° West 430 495 51,000  Level Cleveland Center
Thu 10:40:16 PM 42.5236 -83.4444 270° West 424 488 51,000  Level Cleveland Center
Thu 10:41:17 PM 42.5211 -83.6028 269° West 428 493 51,000  Level Cleveland Center
Thu 10:42:19 PM 42.5186 -83.7931 269° West 428 493 51,000  Level Cleveland Center
Thu 10:43:20 PM 42.5172 -83.9528 269° West 427 491 51,000  Level Cleveland Center
Thu 10:44:22 PM 42.5153 -84.1086 269° West 420 483 51,000  Level Cleveland Center
Thu 10:45:23 PM 42.5128 -84.2675 269° West 422 486 51,000  Level Cleveland Center
Thu 10:46:24 PM 42.5097 -84.4236 269° West 420 483 51,000  Level Cleveland Center
Thu 10:47:25 PM 42.5075 -84.5986 269° West 412 474 51,000  Level Chicago Center
Thu 10:48:27 PM 42.5225 -84.7531 278° West 416 479 51,000 -49 Level Chicago Center
Thu 10:49:28 PM 42.5397 -84.9089 279° West 423 487 50,900 -1,426 Descending Chicago Center
Thu 10:50:29 PM 42.5578 -85.0717 279° West 457 526 48,100 -2,557 Descending Chicago Center
Thu 10:51:30 PM 42.5764 -85.2442 278° West 459 528 45,700 -2,537 Descending Chicago Center
Thu 10:52:32 PM 42.5947 -85.4136 278° West 448 516 42,900 -2,976 Descending Chicago Center
Thu 10:53:33 PM 42.6125 -85.5825 278° West 447 514 39,600 -3,098 Descending Chicago Center
Thu 10:54:34 PM 42.6297 -85.7486 278° West 438 504 36,600 -2,902 Descending Chicago Center
Thu 10:55:35 PM 42.6461 -85.9103 278° West 423 487 33,700 -2,780 Descending Chicago Center
Thu 10:56:37 PM 42.6622 -86.0653 278° West 407 468 30,900 -2,927 Descending Chicago Center
Thu 10:57:38 PM 42.6797 -86.2422 278° West 385 443 27,700 -2,852 Descending Chicago Center
Thu 10:58:39 PM 42.6936 -86.3836 278° West 368 423 25,100 -2,508 Descending Chicago Center
Thu 10:59:40 PM 42.7067 -86.5186 278° West 356 410 22,600 -2,390 Descending Chicago Center
Thu 11:00:42 PM 42.7189 -86.6486 277° West 343 395 20,200 -2,341 Descending Chicago Center
Thu 11:01:43 PM 42.7319 -86.7811 278° West 360 414 17,800 -2,410 Descending Chicago Center
Thu 11:02:44 PM 42.7444 -86.9169 277° West 364 419 15,300 -2,016 Descending Chicago Center
Thu 11:03:45 PM 42.7567 -87.0481 277° West 339 390 13,700 -1,268 Descending Chicago Center
Thu 11:04:47 PM 42.7678 -87.1714 277° West 323 372 12,700 -976 Descending Chicago Center
Thu 11:05:48 PM 42.7514 -87.2861 259° West 309 356 11,700 -1,082 Descending Chicago Center
Thu 11:06:49 PM 42.7269 -87.4119 255° West 294 338 10,500 -1,279 Descending Chicago Center
Thu 11:07:50 PM 42.7061 -87.5175 255° West 285 328 9,100 -1,721 Descending Chicago Center
Thu 11:08:51 PM 42.6867 -87.6192 255° West 278 320 7,000 -1,561 Descending Chicago Center
Thu 11:09:53 PM 42.6675 -87.7175 255° West 268 308 5,900 -1,024 Descending Chicago Center
Thu 11:10:54 PM 42.6422 -87.8119 250° West 268 308 4,900 -934 Descending Chicago Center
Thu 11:11:55 PM 42.6203 -87.8994 251° West 256 295 4,000 -492 Descending Chicago Center
Thu 11:12:56 PM 42.6089 -87.9903 260° West 253 291 3,900 -98 Descending Chicago Center
Thu 11:13:57 PM 42.6050 -88.0844 267° West 253 291 3,800 -344 Descending Chicago Center
Thu 11:14:58 PM 42.5822 -88.1586 247° West 228 262 3,200 -443 Descending Chicago Center
Thu 11:15:59 PM 42.5367 -88.1692 190° South 217 250 2,900 -98 Descending Chicago Center
Thu 11:17:00 PM 42.5400 -88.0839 87° East 207 238 3,000 -295 Climbing Chicago Center
Thu 11:18:01 PM 42.5603 -88.0278 64° Northeast 188 216 2,300 -780 Descending Chicago Center
Thu 11:19:03 PM 42.5764 -87.9858 62° Northeast 138 159 1,400 -732 Descending Chicago Center
Thu 11:20:04 PM 42.5903 -87.9497 62° Northeast 117 135 800 -344 Descending Chicago Center
Thu 11:21:05 PM 42.6042 -87.9125 63° Northeast 115 132 700 -98 Descending Chicago Center

Login

Don't have an account? Register now (free) for customized features, flight alerts, and more!